Nomad — 9HA2354 — position and weather

sailwx.info

Track history (hours):
 
Tides and Currents Weather Stations Pressure Air Temp Water Temp Dewpoint Dewpoint Depression Visibility Wind Speed Wind Dir Waves Ship Positions

Nomad

Last reported at 2016-Apr-30 13:14 UTC. Time now 2016-Apr-30 16:53 UTC.
Position N 37°15' E 023°10'.

Length 70 m; draft 3 m.

Type: Other ship. MMSI: 248413000.

Date/timePositionNaut miles runAvg speedWind from/ knotsBaromVisibWave heightAir tempDewpointWater temp
2016-Apr-30 13:14N 37°15' E 023°10'0 0.0
2016-Apr-30 10:23N 37°15' E 023°10'0 0.0
2016-Apr-30 09:29N 37°15' E 023°10'0 0.0
2016-Apr-30 08:08N 37°15' E 023°10'0 0.0
2016-Apr-30 07:23N 37°15' E 023°10'0 0.0
2016-Apr-30 06:23N 37°15' E 023°10'0 0.0
2016-Apr-30 05:23N 37°15' E 023°10'0 0.0
2016-Apr-30 04:32N 37°15' E 023°10'0 0.0
2016-Apr-30 03:29N 37°15' E 023°10'0 0.0
2016-Apr-30 02:32N 37°15' E 023°10'0 0.0
2016-Apr-30 01:32N 37°15' E 023°10'0 0.0
2016-Apr-30 00:29N 37°15' E 023°10'0 0.0
2016-Apr-29 23:05N 37°15' E 023°10'0 0.0
2016-Apr-29 21:26N 37°15' E 023°10'0 0.0
2016-Apr-29 08:23N 37°15' E 023°10'0 0.0
2016-Apr-29 07:20N 37°15' E 023°10'11 5.9
2016-Apr-29 05:33N 37°20' E 023°22'4 3.8
2016-Apr-29 04:31N 37°21' E 023°27'0 0.0
2016-Apr-29 03:31N 37°21' E 023°27'0 0.0
2016-Apr-29 01:25N 37°21' E 023°27'0 0.0
2016-Apr-29 00:28N 37°21' E 023°27'0 0.0
2016-Apr-28 23:28N 37°21' E 023°27'0 0.0
2016-Apr-28 22:31N 37°21' E 023°27'0 0.0
2016-Apr-28 21:28N 37°21' E 023°27'0 0.0
2016-Apr-28 20:33N 37°21' E 023°27'0 0.0
2016-Apr-28 19:32N 37°21' E 023°27'0 0.0
2016-Apr-28 18:33N 37°21' E 023°27'0 0.0
2016-Apr-28 17:33N 37°21' E 023°27'0 0.0
2016-Apr-28 16:33N 37°21' E 023°27'5 4.9
2016-Apr-28 15:33N 37°25' E 023°31'1211.6
2016-Apr-28 14:33N 37°35' E 023°37'1211.7
2016-Apr-28 13:34N 37°46' E 023°43'5 4.7
2016-Apr-28 12:33N 37°50' E 023°45'0 0.0
2016-Apr-28 11:33N 37°50' E 023°45'0 0.0
2016-Apr-28 10:33N 37°50' E 023°45'0 0.0
2016-Apr-28 09:33N 37°50' E 023°45'0 0.1
2016-Apr-28 08:33N 37°50' E 023°45'1110.7
2016-Apr-28 07:33N 37°41' E 023°53'  
2016-Apr-25 04:32N 37°31' E 024°01'1212.1
2016-Apr-25 03:32N 37°20' E 023°55'45411.6
2016-Apr-23 12:15N 36°26' E 014°31'1212.4
2016-Apr-23 11:15N 36°25' E 014°16'5912.3
2016-Apr-23 06:27N 36°38' E 013°04'  
Track history (hours):
 
Tides and Currents Weather Stations Pressure Air Temp Water Temp Dewpoint Dewpoint Depression Visibility Wind Speed Wind Dir Waves Ship Positions

Nomad

Last reported at 2016-Apr-30 13:14 UTC. Time now 2016-Apr-30 16:53 UTC.
Position N 37°15' E 023°10'.

Length 70 m; draft 3 m.

Type: Other ship. MMSI: 248413000.

Date/timePositionNaut miles runAvg speedWind from/ knotsBaromVisibWave heightAir tempDewpointWater temp
2016-Apr-30 13:14N 37°15' E 023°10'0 0.0
2016-Apr-30 10:23N 37°15' E 023°10'0 0.0
2016-Apr-30 09:29N 37°15' E 023°10'0 0.0
2016-Apr-30 08:08N 37°15' E 023°10'0 0.0
2016-Apr-30 07:23N 37°15' E 023°10'0 0.0
2016-Apr-30 06:23N 37°15' E 023°10'0 0.0
2016-Apr-30 05:23N 37°15' E 023°10'0 0.0
2016-Apr-30 04:32N 37°15' E 023°10'0 0.0
2016-Apr-30 03:29N 37°15' E 023°10'0 0.0
2016-Apr-30 02:32N 37°15' E 023°10'0 0.0
2016-Apr-30 01:32N 37°15' E 023°10'0 0.0
2016-Apr-30 00:29N 37°15' E 023°10'0 0.0
2016-Apr-29 23:05N 37°15' E 023°10'0 0.0
2016-Apr-29 21:26N 37°15' E 023°10'0 0.0
2016-Apr-29 08:23N 37°15' E 023°10'0 0.0
2016-Apr-29 07:20N 37°15' E 023°10'11 5.9
2016-Apr-29 05:33N 37°20' E 023°22'4 3.8
2016-Apr-29 04:31N 37°21' E 023°27'0 0.0
2016-Apr-29 03:31N 37°21' E 023°27'0 0.0
2016-Apr-29 01:25N 37°21' E 023°27'0 0.0
2016-Apr-29 00:28N 37°21' E 023°27'0 0.0
2016-Apr-28 23:28N 37°21' E 023°27'0 0.0
2016-Apr-28 22:31N 37°21' E 023°27'0 0.0
2016-Apr-28 21:28N 37°21' E 023°27'0 0.0
2016-Apr-28 20:33N 37°21' E 023°27'0 0.0
2016-Apr-28 19:32N 37°21' E 023°27'0 0.0
2016-Apr-28 18:33N 37°21' E 023°27'0 0.0
2016-Apr-28 17:33N 37°21' E 023°27'0 0.0
2016-Apr-28 16:33N 37°21' E 023°27'5 4.9
2016-Apr-28 15:33N 37°25' E 023°31'1211.6
2016-Apr-28 14:33N 37°35' E 023°37'1211.7
2016-Apr-28 13:34N 37°46' E 023°43'5 4.7
2016-Apr-28 12:33N 37°50' E 023°45'0 0.0
2016-Apr-28 11:33N 37°50' E 023°45'0 0.0
2016-Apr-28 10:33N 37°50' E 023°45'0 0.0
2016-Apr-28 09:33N 37°50' E 023°45'0 0.1
2016-Apr-28 08:33N 37°50' E 023°45'1110.7
2016-Apr-28 07:33N 37°41' E 023°53'  
2016-Apr-25 04:32N 37°31' E 024°01'1212.1
2016-Apr-25 03:32N 37°20' E 023°55'45411.6
2016-Apr-23 12:15N 36°26' E 014°31'1212.4
2016-Apr-23 11:15N 36°25' E 014°16'5912.3
2016-Apr-23 06:27N 36°38' E 013°04'  

Dump ship's entire track history